LJMB/MBX METAR and TAF weather

Enter ICAO airport designator
Station Type Date Time Source
LJMB METAR 2020/09/26 17:30 UTC NOAA

LJMB 261730Z 23002KT CAVOK 10/08 Q1000


Station Type Date Time Source
LJMB Decoded METAR 2020/09/26 17:30 UTC NOAA

Maribor / Slivnica, Slovenia (LJMB) 46-29N 015-41E 265M
Sep 26, 2020 - 01:30 PM EDT / 2020.09.26 1730 UTC
Wind: from the SW (230 degrees) at 2 MPH (2 KT):0
Visibility: greater than 7 mile(s):0
Temperature: 50 F (10 C)
Dew Point: 46 F (8 C)
Relative Humidity: 87%
Pressure (altimeter): 29.53 in. Hg (1000 hPa)
ob: LJMB 261730Z 23002KT CAVOK 10/08 Q1000
cycle: 17

Station Type Date Time Source
LJMB TAF 2020/09/26 18:06 UTC NOAA

TAF LJMB 261700Z 2618/2718 19003KT CAVOK PROB30
TEMPO 2702/2707 0400 FG VV001
BECMG 2716/2718 -RA

Example: see airport list